Time;durP1;ratioP1;P1;durP2;ratioP2;P2;SDS_P1;SDS_P2;PMS_P1;PMS_P2;Temp;Humidity;BMP_temperature;BMP_pressure;BME280_temperature;BME280_humidity;BME280_pressure;Samples;Min_cycle;Max_cycle;Signal;HPM_P1;HPM_P2
2022/01/16 00:09:41;;;;;;;7.47;4.50;;;20.20;63.40;;;;;;10223963;29;20110;-67
2022/01/16 00:14:50;;;;;;;6.45;4.15;;;20.20;63.40;;;;;;10342451;28;20049;-68
2022/01/16 00:20:08;;;;;;;7.23;4.30;;;20.20;63.50;;;;;;10345399;28;20391;-66
2022/01/16 00:25:36;;;;;;;7.45;4.35;;;20.10;63.40;;;;;;10348681;28;20062;-67
2022/01/16 00:30:51;;;;;;;14.02;8.85;;;20.10;63.40;;;;;;10390276;28;20380;-59
2022/01/16 00:35:58;;;;;;;16.65;8.63;;;19.80;60.20;;;;;;10382484;28;20112;-58
2022/01/16 00:41:03;;;;;;;17.80;8.32;;;19.50;60.90;;;;;;10416068;28;20049;-59
2022/01/16 00:46:11;;;;;;;13.60;7.95;;;19.40;61.40;;;;;;10518067;28;20459;-64
2022/01/16 00:51:17;;;;;;;20.23;7.28;;;19.40;61.50;;;;;;10542921;28;20049;-64
2022/01/16 00:56:25;;;;;;;12.48;5.72;;;19.50;62.60;;;;;;10525814;28;20105;-63
2022/01/16 01:01:30;;;;;;;8.50;4.72;;;19.60;62.50;;;;;;10544147;28;20445;-64
2022/01/16 01:06:35;;;;;;;8.18;4.45;;;19.60;62.50;;;;;;10543849;28;20070;-64
2022/01/16 01:11:46;;;;;;;17.50;4.00;;;19.70;62.50;;;;;;10543777;28;20040;-64
2022/01/16 01:16:59;;;;;;;9.73;3.08;;;19.60;62.60;;;;;;10543512;28;20480;-65
2022/01/16 01:22:06;;;;;;;12.05;3.10;;;19.60;62.60;;;;;;10542680;28;20505;-64
2022/01/16 01:27:21;;;;;;;6.38;3.45;;;19.60;62.70;;;;;;10542287;28;20048;-64
2022/01/16 01:32:25;;;;;;;9.55;3.13;;;19.60;62.80;;;;;;10542545;28;20047;-66
2022/01/16 01:37:33;;;;;;;9.43;3.03;;;19.60;62.90;;;;;;10538966;28;20051;-63
2022/01/16 01:53:51;;;;;;;3.83;2.38;;;19.60;63.00;;;;;;10583956;28;20454;-64
2022/01/16 01:59:08;;;;;;;7.03;2.50;;;19.60;63.10;;;;;;10565184;28;20377;-65
2022/01/16 02:04:27;;;;;;;6.68;2.50;;;19.50;63.10;;;;;;10566136;28;20564;-65
2022/01/16 02:09:41;;;;;;;4.10;2.20;;;19.60;63.10;;;;;;10564898;28;20044;-63
2022/01/16 02:15:04;;;;;;;3.58;2.60;;;19.50;63.20;;;;;;10533930;28;20108;-64
2022/01/16 02:31:36;;;;;;;5.80;2.78;;;19.60;63.20;;;;;;10563711;28;20105;-65
2022/01/16 02:37:23;;;;;;;4.88;2.63;;;19.50;63.20;;;;;;10581727;28;20051;-65
2022/01/16 02:42:42;;;;;;;4.57;2.50;;;19.60;63.30;;;;;;10548164;28;20112;-64
2022/01/16 02:47:56;;;;;;;7.55;2.95;;;19.50;63.20;;;;;;10581204;28;20044;-65
2022/01/16 02:53:13;;;;;;;5.90;3.13;;;19.50;63.30;;;;;;10565334;28;20039;-64
2022/01/16 02:58:24;;;;;;;6.57;3.25;;;19.50;63.30;;;;;;10581232;28;20396;-66
2022/01/16 03:03:29;;;;;;;5.85;2.90;;;19.50;63.30;;;;;;10564695;28;20047;-64
2022/01/16 03:08:34;;;;;;;9.85;3.15;;;19.50;63.40;;;;;;10581308;28;20070;-65
2022/01/16 03:13:47;;;;;;;6.70;3.47;;;19.50;63.40;;;;;;10607882;27;20096;-65
2022/01/16 03:24:19;;;;;;;10.25;3.60;;;19.50;63.40;;;;;;10632191;27;20043;-64
2022/01/16 03:29:25;;;;;;;16.50;4.10;;;19.40;63.40;;;;;;10633179;27;20096;-64
2022/01/16 03:34:31;;;;;;;8.88;4.03;;;19.40;63.30;;;;;;10632229;27;20039;-64
2022/01/16 03:39:37;;;;;;;20.23;4.22;;;19.40;63.40;;;;;;10631758;27;20487;-64
2022/01/16 03:44:42;;;;;;;9.38;3.65;;;19.40;63.40;;;;;;10631483;27;20088;-64
2022/01/16 03:49:47;;;;;;;11.55;3.90;;;19.30;63.50;;;;;;10631706;27;20068;-64
2022/01/16 03:54:52;;;;;;;10.30;4.38;;;19.40;63.50;;;;;;10631022;27;20051;-64
2022/01/16 04:00:00;;;;;;;6.68;3.75;;;19.30;63.50;;;;;;10630721;27;20055;-64
2022/01/16 04:05:08;;;;;;;10.93;4.43;;;19.30;63.50;;;;;;10631267;27;20039;-64
2022/01/16 04:10:16;;;;;;;;;;;19.30;63.60;;;;;;10631498;27;20043;-63
2022/01/16 04:20:26;;;;;;;7.05;3.88;;;19.30;63.60;;;;;;10630456;27;20039;-63
2022/01/16 04:25:31;;;;;;;7.50;4.03;;;19.40;63.50;;;;;;10630168;27;20095;-63
2022/01/16 04:30:40;;;;;;;5.95;3.60;;;19.50;63.60;;;;;;10630177;27;20047;-63
2022/01/16 04:35:48;;;;;;;6.88;3.72;;;19.60;63.50;;;;;;10629938;27;20445;-64
2022/01/16 04:46:25;;;;;;;9.13;3.67;;;19.80;63.20;;;;;;10589028;27;20062;-64
2022/01/16 04:51:32;;;;;;;5.35;3.25;;;19.90;63.10;;;;;;10629976;27;20096;-64
2022/01/16 04:56:37;;;;;;;8.82;3.83;;;20.00;63.00;;;;;;10628636;27;20051;-63
2022/01/16 05:01:42;;;;;;;23.17;3.60;;;20.00;62.90;;;;;;10628233;27;20047;-64
2022/01/16 05:06:48;;;;;;;7.47;3.25;;;20.10;62.90;;;;;;10609965;27;20453;-64
2022/01/16 05:11:56;;;;;;;4.88;3.00;;;20.20;62.80;;;;;;10628526;27;20043;-64
2022/01/16 05:17:02;;;;;;;6.22;3.35;;;20.30;62.80;;;;;;10627879;27;20047;-64
2022/01/16 05:22:09;;;;;;;9.23;3.20;;;20.40;62.70;;;;;;10627356;27;20047;-63
2022/01/16 05:27:14;;;;;;;8.80;2.97;;;20.40;62.60;;;;;;10627840;27;20065;-63
2022/01/16 05:32:22;;;;;;;7.47;3.17;;;20.50;62.60;;;;;;10627720;27;20484;-62
2022/01/16 05:37:32;;;;;;;5.93;3.00;;;20.50;62.60;;;;;;10626456;27;20047;-62
2022/01/16 05:42:40;;;;;;;3.55;2.25;;;20.60;62.70;;;;;;10626579;27;20069;-62
2022/01/16 05:47:45;;;;;;;4.80;2.92;;;20.60;62.70;;;;;;10627059;27;20062;-62
2022/01/16 05:52:50;;;;;;;9.52;3.28;;;20.70;62.70;;;;;;10626814;27;20051;-62
2022/01/16 05:57:55;;;;;;;5.00;2.88;;;20.80;62.80;;;;;;10627190;27;20077;-62
2022/01/16 06:03:01;;;;;;;3.92;2.22;;;20.80;62.90;;;;;;10626311;27;20399;-62
2022/01/16 06:08:12;;;;;;;4.32;3.03;;;20.90;63.00;;;;;;10626243;27;20471;-62
2022/01/16 06:13:17;;;;;;;4.50;2.53;;;20.90;63.10;;;;;;10625603;27;20047;-62
2022/01/16 06:18:22;;;;;;;5.97;2.47;;;20.90;63.10;;;;;;10625860;27;20044;-62
2022/01/16 06:23:28;;;;;;;3.88;2.60;;;21.00;63.20;;;;;;10626197;27;20035;-62
2022/01/16 06:28:33;;;;;;;4.97;2.92;;;21.00;63.20;;;;;;10625420;27;20043;-65
2022/01/16 06:33:42;;;;;;;4.88;2.80;;;21.10;63.30;;;;;;10625501;27;20035;-65
2022/01/16 06:38:52;;;;;;;;;;;21.10;63.50;;;;;;10624529;27;20047;-64
2022/01/16 06:43:57;;;;;;;5.22;2.85;;;21.20;63.50;;;;;;10625040;27;19919;-63
2022/01/16 06:49:10;;;;;;;3.95;2.67;;;21.20;63.50;;;;;;10624938;27;20550;-63
2022/01/16 06:54:15;;;;;;;6.38;3.00;;;21.30;63.50;;;;;;10625207;27;20043;-65
2022/01/16 06:59:20;;;;;;;4.75;3.25;;;21.30;63.50;;;;;;10624345;27;20159;-65
2022/01/16 07:04:27;;;;;;;5.18;3.10;;;21.30;63.50;;;;;;10624456;27;20066;-64
2022/01/16 07:09:36;;;;;;;6.60;2.70;;;21.40;63.50;;;;;;10607150;28;20100;-64
2022/01/16 07:14:44;;;;;;;5.07;2.55;;;21.40;63.50;;;;;;10623582;28;20050;-64
2022/01/16 07:19:52;;;;;;;7.28;2.60;;;21.40;63.50;;;;;;10623305;28;20476;-64
2022/01/16 07:25:00;;;;;;;5.18;2.38;;;21.40;63.40;;;;;;10623882;28;20047;-64
2022/01/16 07:30:06;;;;;;;4.45;2.30;;;21.30;63.40;;;;;;10623944;28;20036;-65
2022/01/16 07:35:11;;;;;;;9.93;2.05;;;21.30;63.50;;;;;;10622845;28;20088;-65
2022/01/16 07:40:37;;;;;;;10.55;2.47;;;21.30;63.60;;;;;;10623656;28;20115;-64
2022/01/16 07:45:42;;;;;;;4.60;2.60;;;21.30;63.70;;;;;;10623181;28;20051;-65
2022/01/16 07:50:48;;;;;;;10.60;2.63;;;21.20;63.60;;;;;;10623511;28;20402;-63
2022/01/16 07:55:53;;;;;;;3.60;1.75;;;21.20;63.60;;;;;;10624084;28;20395;-63
2022/01/16 08:01:04;;;;;;;7.70;2.00;;;21.20;63.70;;;;;;10626041;27;20441;-65
2022/01/16 08:06:12;;;;;;;8.38;2.00;;;21.10;63.70;;;;;;10631325;27;20395;-65
2022/01/16 08:11:20;;;;;;;3.80;1.85;;;21.00;63.70;;;;;;10631077;27;20036;-65
2022/01/16 08:16:29;;;;;;;3.92;1.38;;;21.00;63.90;;;;;;10630898;27;20039;-65
2022/01/16 08:21:37;;;;;;;2.75;1.10;;;20.90;63.80;;;;;;10631169;27;20084;-66
2022/01/16 08:26:41;;;;;;;;;;;20.90;63.90;;;;;;10630877;27;20080;-58
2022/01/16 08:31:46;;;;;;;18.65;4.53;;;20.80;63.00;;;;;;10629434;27;20288;-64
2022/01/16 08:36:52;;;;;;;12.60;4.07;;;20.20;55.10;;;;;;10629297;27;20081;-65
2022/01/16 08:41:57;;;;;;;16.83;3.42;;;20.10;60.70;;;;;;10629173;27;20047;-65
2022/01/16 08:47:02;;;;;;;10.15;3.58;;;20.20;60.50;;;;;;10629177;27;20096;-66
2022/01/16 08:52:22;;;;;;;36.33;5.53;;;20.30;60.20;;;;;;10616321;27;20546;-65
2022/01/16 08:57:36;;;;;;;15.27;3.40;;;20.40;60.20;;;;;;10581264;28;20577;-66
2022/01/16 09:02:51;;;;;;;15.75;2.95;;;20.30;60.20;;;;;;10526374;28;20044;-67
2022/01/16 09:08:26;;;;;;;9.68;2.97;;;20.30;60.20;;;;;;10508895;28;20077;-64
2022/01/16 09:13:58;;;;;;;10.25;2.55;;;20.30;60.30;;;;;;10577517;28;20055;-65
2022/01/16 09:19:06;;;;;;;6.15;2.22;;;20.20;60.20;;;;;;10583499;28;20378;-64
2022/01/16 09:24:20;;;;;;;5.28;2.03;;;20.20;60.20;;;;;;10583885;28;20044;-65
2022/01/16 09:29:40;;;;;;;4.05;1.73;;;20.20;60.20;;;;;;10585202;28;20039;-65
2022/01/16 09:35:00;;;;;;;3.42;1.75;;;20.10;60.10;;;;;;10566720;28;20043;-64
2022/01/16 09:41:02;;;;;;;3.17;1.48;;;20.10;60.10;;;;;;10582927;28;20389;-62
2022/01/16 09:47:22;;;;;;;2.22;1.02;;;20.10;60.10;;;;;;10582986;28;20047;-67
2022/01/16 09:54:00;;;;;;;3.95;1.70;;;20.00;59.90;;;;;;10495924;28;20052;-66
2022/01/16 10:00:25;;;;;;;5.88;3.15;;;20.00;59.90;;;;;;10232850;28;20075;-63
2022/01/16 11:01:38;;;;;;;14.85;5.70;;;21.10;56.90;;;;;;10105705;29;20088;-65
2022/01/16 11:16:42;;;;;;;13.80;6.53;;;21.10;56.80;;;;;;10116125;29;20045;-65
2022/01/16 11:29:43;;;;;;;16.30;7.40;;;21.10;56.60;;;;;;9995866;29;20523;-65
2022/01/16 11:34:47;;;;;;;15.00;6.82;;;21.10;56.60;;;;;;10088432;29;20052;-64
2022/01/16 11:39:52;;;;;;;15.15;7.13;;;21.10;56.60;;;;;;10176405;29;20075;-67
2022/01/16 11:44:56;;;;;;;15.93;6.85;;;21.00;56.70;;;;;;10236970;29;20075;-66
2022/01/16 11:50:10;;;;;;;24.77;7.40;;;21.00;56.80;;;;;;10299640;28;20061;-66
2022/01/16 11:55:15;;;;;;;20.45;8.93;;;21.00;56.90;;;;;;10418155;28;20418;-65
2022/01/16 12:00:20;;;;;;;17.52;7.93;;;21.00;56.90;;;;;;10417784;28;20041;-66
2022/01/16 12:05:27;;;;;;;14.65;7.20;;;20.90;56.90;;;;;;10522605;27;20055;-67
2022/01/16 12:10:50;;;;;;;10.93;6.50;;;20.90;57.00;;;;;;10631163;27;20548;-63
2022/01/16 12:16:33;;;;;;;18.45;8.25;;;20.90;56.90;;;;;;10631215;27;20051;-62
2022/01/16 12:21:37;;;;;;;13.07;6.72;;;20.90;56.90;;;;;;10630638;27;20499;-62
2022/01/16 12:26:42;;;;;;;16.35;7.30;;;20.90;57.00;;;;;;10630402;27;20043;-65
2022/01/16 12:31:46;;;;;;;16.98;7.10;;;20.80;57.00;;;;;;10630157;27;20050;-65
2022/01/16 12:36:51;;;;;;;17.83;7.43;;;20.80;57.00;;;;;;10614424;27;20052;-64
2022/01/16 12:41:57;;;;;;;14.55;6.93;;;20.80;56.90;;;;;;10586600;28;20089;-65
2022/01/16 12:47:04;;;;;;;14.30;7.13;;;20.80;56.90;;;;;;10586948;28;20069;-63
2022/01/16 12:52:09;;;;;;;18.53;9.10;;;20.70;57.20;;;;;;10587002;28;20040;-67
2022/01/16 12:57:25;;;;;;;24.30;11.80;;;20.70;57.20;;;;;;10586642;28;20047;-63
2022/01/16 13:02:31;;;;;;;22.52;10.82;;;20.60;57.20;;;;;;10585465;28;20120;-66
2022/01/16 13:07:42;;;;;;;22.70;10.63;;;20.60;57.50;;;;;;10586272;28;20051;-65
2022/01/16 13:12:47;;;;;;;19.00;9.32;;;20.50;57.60;;;;;;10585918;28;20443;-63
2022/01/16 13:17:51;;;;;;;15.98;7.85;;;20.50;57.70;;;;;;10586382;28;20073;-64
2022/01/16 13:22:56;;;;;;;11.85;7.30;;;20.40;57.80;;;;;;10585123;28;20048;-65
2022/01/16 13:28:01;;;;;;;11.02;6.93;;;20.40;58.60;;;;;;10586027;28;20552;-64
2022/01/16 13:33:09;;;;;;;12.50;5.93;;;20.40;58.00;;;;;;10584609;28;20089;-64
2022/01/16 13:38:17;;;;;;;9.95;5.43;;;20.40;58.10;;;;;;10612209;27;20556;-65
2022/01/16 13:43:30;;;;;;;12.75;4.68;;;20.30;58.10;;;;;;10627282;27;20043;-64
2022/01/16 13:48:36;;;;;;;9.23;4.18;;;20.30;58.80;;;;;;10606747;27;20047;-66
2022/01/16 13:53:44;;;;;;;7.13;3.70;;;20.30;58.10;;;;;;10583837;28;20488;-64
2022/01/16 13:58:56;;;;;;;12.07;4.25;;;20.30;58.20;;;;;;10583815;28;20047;-65
2022/01/16 14:04:11;;;;;;;9.68;4.20;;;20.20;58.20;;;;;;10583999;28;20040;-65
2022/01/16 14:09:17;;;;;;;10.18;4.60;;;20.20;58.30;;;;;;10583932;28;20043;-66
2022/01/16 14:14:24;;;;;;;7.30;4.38;;;20.20;58.30;;;;;;10583601;28;20044;-65
2022/01/16 14:24:52;;;;;;;12.63;7.30;;;20.10;58.30;;;;;;10583339;28;20051;-65
2022/01/16 14:30:01;;;;;;;15.00;6.88;;;20.10;59.00;;;;;;10564548;28;20097;-66
2022/01/16 14:35:06;;;;;;;11.02;6.78;;;20.10;58.40;;;;;;10582499;27;20093;-64
2022/01/16 14:40:11;;;;;;;14.82;7.03;;;20.00;58.40;;;;;;10582761;28;20088;-65
2022/01/16 14:45:16;;;;;;;14.50;8.38;;;20.00;58.30;;;;;;10582492;28;20550;-66
2022/01/16 14:50:21;;;;;;;14.63;7.60;;;20.00;58.30;;;;;;10582167;28;20039;-63
2022/01/16 14:55:26;;;;;;;21.05;11.30;;;19.90;58.30;;;;;;10582173;28;20069;-65
2022/01/16 15:00:33;;;;;;;17.10;8.02;;;19.90;58.40;;;;;;10583700;28;20039;-65
2022/01/16 15:05:39;;;;;;;;;;;19.90;58.70;;;;;;10581901;28;20085;-65
2022/01/16 15:10:44;;;;;;;16.25;7.10;;;19.90;58.70;;;;;;10580894;28;19970;-65
2022/01/16 15:15:49;;;;;;;11.68;6.85;;;19.90;58.80;;;;;;10582074;28;20131;-66
2022/01/16 15:20:57;;;;;;;15.27;7.20;;;19.90;58.80;;;;;;10581002;28;20068;-65
2022/01/16 15:26:06;;;;;;;14.13;7.55;;;19.80;58.80;;;;;;10582218;28;20065;-65
2022/01/16 15:31:11;;;;;;;16.48;7.50;;;19.80;58.80;;;;;;10581431;28;20089;-64
2022/01/16 15:36:16;;;;;;;15.43;8.00;;;19.80;58.80;;;;;;10591464;28;20092;-66
2022/01/16 15:41:22;;;;;;;13.55;7.72;;;19.80;58.90;;;;;;10624063;28;20105;-66
2022/01/16 15:46:27;;;;;;;15.88;8.20;;;19.80;58.80;;;;;;10603323;28;20487;-65
2022/01/16 15:51:32;;;;;;;17.73;7.60;;;19.80;58.80;;;;;;10580458;28;20400;-64
2022/01/16 15:57:02;;;;;;;17.75;8.10;;;19.70;58.70;;;;;;10580936;28;20480;-64
2022/01/16 16:02:07;;;;;;;16.92;8.02;;;19.80;58.80;;;;;;10579012;28;20508;-64
2022/01/16 16:07:13;;;;;;;14.38;7.80;;;19.70;58.80;;;;;;10580355;28;20051;-63
2022/01/16 16:12:18;;;;;;;20.60;9.73;;;19.70;58.80;;;;;;10581280;28;20101;-64
2022/01/16 16:17:23;;;;;;;15.50;9.35;;;19.70;58.70;;;;;;10580433;28;20043;-63
2022/01/16 16:22:28;;;;;;;17.05;9.07;;;19.70;58.60;;;;;;10583309;28;20104;-65
2022/01/16 16:27:33;;;;;;;15.13;8.32;;;19.60;58.60;;;;;;10587427;28;20492;-64
2022/01/16 16:32:38;;;;;;;15.35;8.65;;;19.60;58.50;;;;;;10588388;28;20089;-64
2022/01/16 16:37:44;;;;;;;16.67;8.70;;;19.60;58.40;;;;;;10588484;28;20085;-65
2022/01/16 16:43:01;;;;;;;16.50;8.97;;;19.70;58.00;;;;;;10587290;28;20035;-63
2022/01/16 16:48:06;;;;;;;15.10;8.77;;;19.80;57.70;;;;;;10586993;28;20073;-63
2022/01/16 16:53:12;;;;;;;14.85;8.93;;;19.90;57.30;;;;;;10586980;28;20047;-65
2022/01/16 16:58:38;;;;;;;19.33;8.13;;;20.20;57.20;;;;;;10585221;28;20557;-65
2022/01/16 17:03:43;;;;;;;13.40;7.43;;;20.20;57.00;;;;;;10585760;28;20094;-65
2022/01/16 17:08:49;;;;;;;14.80;5.97;;;20.20;57.00;;;;;;10586177;28;20051;-63
2022/01/16 17:13:54;;;;;;;11.52;6.32;;;20.20;57.10;;;;;;10586248;28;20089;-64
2022/01/16 17:19:08;;;;;;;13.02;6.55;;;20.30;57.90;;;;;;10586236;28;20065;-64
2022/01/16 17:24:13;;;;;;;11.35;6.78;;;20.30;58.10;;;;;;10585229;28;20446;-62
2022/01/16 17:29:18;;;;;;;14.40;6.90;;;20.40;58.10;;;;;;10585390;28;20077;-63
2022/01/16 17:34:23;;;;;;;12.38;6.82;;;20.40;58.30;;;;;;10583611;28;20047;-63
2022/01/16 17:39:29;;;;;;;18.45;7.47;;;20.30;58.50;;;;;;10622045;27;20055;-65
2022/01/16 17:44:35;;;;;;;14.60;7.47;;;20.30;58.40;;;;;;10627329;27;20035;-65
2022/01/16 17:49:40;;;;;;;14.85;7.00;;;20.30;58.40;;;;;;10597993;27;20047;-65
2022/01/16 17:54:46;;;;;;;9.93;5.95;;;20.30;58.30;;;;;;10584386;28;20055;-64
2022/01/16 17:59:54;;;;;;;14.32;6.82;;;20.20;58.20;;;;;;10583734;28;20051;-63
2022/01/16 18:04:58;;;;;;;14.43;6.40;;;20.30;58.20;;;;;;10583994;28;20065;-63
2022/01/16 18:10:05;;;;;;;10.32;6.10;;;20.30;58.20;;;;;;10583842;28;20048;-65
2022/01/16 18:15:10;;;;;;;11.50;6.15;;;20.20;58.10;;;;;;10583677;28;20044;-63
2022/01/16 18:20:16;;;;;;;10.82;5.80;;;20.20;58.20;;;;;;10583257;28;20035;-62
2022/01/16 18:25:21;;;;;;;9.75;5.28;;;20.20;58.20;;;;;;10583222;28;20109;-61
2022/01/16 18:30:25;;;;;;;8.70;5.88;;;20.10;58.30;;;;;;10584003;28;20055;-63
2022/01/16 18:35:30;;;;;;;22.80;11.35;;;20.10;58.40;;;;;;10582580;28;20105;-61
2022/01/16 18:40:35;;;;;;;36.90;18.85;;;20.10;58.60;;;;;;10582805;28;20541;-62
2022/01/16 18:45:49;;;;;;;39.28;20.58;;;20.00;58.50;;;;;;10581824;28;20419;-62
2022/01/16 18:50:55;;;;;;;36.22;18.92;;;20.00;58.50;;;;;;10581808;28;20039;-62
2022/01/16 18:56:01;;;;;;;33.30;17.75;;;19.90;58.40;;;;;;10582221;28;20043;-63
2022/01/16 19:01:06;;;;;;;28.52;16.15;;;19.90;58.40;;;;;;10574042;28;20492;-58
2022/01/16 19:06:12;;;;;;;29.40;14.98;;;19.80;58.10;;;;;;10542028;28;20047;-58
2022/01/16 19:11:17;;;;;;;22.33;11.43;;;19.70;57.80;;;;;;10539866;28;20040;-64
2022/01/16 19:16:22;;;;;;;22.23;10.20;;;19.60;58.30;;;;;;10539909;28;20101;-63
2022/01/16 19:21:27;;;;;;;15.07;8.88;;;19.60;58.70;;;;;;10540060;28;20093;-65
2022/01/16 19:26:32;;;;;;;12.68;7.43;;;19.60;58.90;;;;;;10538997;28;20056;-63
2022/01/16 19:31:37;;;;;;;12.98;7.30;;;19.70;59.10;;;;;;10538681;28;20070;-64
2022/01/16 19:36:42;;;;;;;13.07;7.53;;;19.60;59.70;;;;;;10553085;28;20052;-64
2022/01/16 19:41:54;;;;;;;16.23;8.68;;;19.60;59.10;;;;;;10586446;28;20199;-65
2022/01/16 19:47:00;;;;;;;15.50;8.43;;;19.60;59.10;;;;;;10608115;28;20051;-66
2022/01/16 19:52:05;;;;;;;14.43;8.48;;;19.60;59.10;;;;;;10621908;28;20465;-64
2022/01/16 19:57:11;;;;;;;13.85;7.55;;;19.60;59.10;;;;;;10624841;27;20051;-65
2022/01/16 20:02:16;;;;;;;18.38;8.63;;;19.50;59.00;;;;;;10631675;27;20043;-66
2022/01/16 20:07:22;;;;;;;15.73;8.68;;;19.50;59.00;;;;;;10631221;27;20433;-63
2022/01/16 20:12:29;;;;;;;11.93;7.57;;;19.50;59.00;;;;;;10630678;27;20043;-64
2022/01/16 20:17:34;;;;;;;13.13;7.40;;;19.50;58.90;;;;;;10631074;27;20476;-64
2022/01/16 20:22:39;;;;;;;11.70;7.15;;;19.50;58.90;;;;;;10630688;27;20047;-65
2022/01/16 20:27:47;;;;;;;10.85;7.15;;;19.50;59.00;;;;;;10630917;27;20043;-65
2022/01/16 20:32:53;;;;;;;9.50;6.57;;;19.50;58.90;;;;;;10630931;27;20548;-63
2022/01/16 20:38:00;;;;;;;12.55;6.28;;;19.50;58.90;;;;;;10629609;27;20492;-66
2022/01/16 20:43:06;;;;;;;9.45;6.25;;;19.50;58.80;;;;;;10629365;27;20047;-64
2022/01/16 20:48:12;;;;;;;9.82;6.32;;;19.40;58.90;;;;;;10614008;27;20396;-65
2022/01/16 20:53:18;;;;;;;10.45;6.00;;;19.40;58.80;;;;;;10586281;28;20040;-65
2022/01/16 20:58:23;;;;;;;12.50;5.72;;;19.40;58.90;;;;;;10586229;28;20055;-67
2022/01/16 21:03:27;;;;;;;9.52;6.18;;;19.40;58.90;;;;;;10586529;28;20044;-65
2022/01/16 21:08:32;;;;;;;11.32;5.57;;;19.40;58.90;;;;;;10585760;28;20081;-67
2022/01/16 21:13:37;;;;;;;22.30;12.63;;;19.30;58.90;;;;;;10585528;28;20537;-67
2022/01/16 21:18:42;;;;;;;23.92;14.27;;;19.30;58.80;;;;;;10590938;27;20051;-63
2022/01/16 21:23:47;;;;;;;20.80;13.20;;;19.30;58.80;;;;;;10585996;28;20043;-66
2022/01/16 21:28:52;;;;;;;19.95;12.73;;;19.30;58.80;;;;;;10627288;27;20104;-65
2022/01/16 21:33:58;;;;;;;17.63;11.07;;;19.30;58.80;;;;;;10627569;27;20039;-65
2022/01/16 21:39:02;;;;;;;20.65;11.35;;;19.30;58.80;;;;;;10627546;27;20393;-66
2022/01/16 21:44:07;;;;;;;16.75;11.05;;;19.20;58.70;;;;;;10627415;27;20069;-66
2022/01/16 21:49:15;;;;;;;16.35;10.07;;;19.20;58.80;;;;;;10602547;27;20120;-66
2022/01/16 21:54:20;;;;;;;16.33;10.40;;;19.20;58.80;;;;;;10584620;28;20096;-65
2022/01/16 21:59:25;;;;;;;17.17;9.82;;;19.20;58.80;;;;;;10584277;28;20044;-65
2022/01/16 22:04:32;;;;;;;16.23;10.82;;;19.20;58.70;;;;;;10584107;28;20197;-63
2022/01/16 22:09:36;;;;;;;17.13;11.20;;;19.20;58.70;;;;;;10583978;28;20043;-63
2022/01/16 22:14:41;;;;;;;19.33;11.10;;;19.10;58.70;;;;;;10583740;28;20043;-64
2022/01/16 22:19:45;;;;;;;17.50;10.77;;;19.10;58.70;;;;;;10583137;28;20058;-65
2022/01/16 22:24:50;;;;;;;18.60;11.55;;;19.10;58.70;;;;;;10583293;28;20039;-65
2022/01/16 22:29:55;;;;;;;19.48;11.20;;;19.10;58.60;;;;;;10583156;28;20400;-63
2022/01/16 22:35:00;;;;;;;18.08;10.93;;;19.10;58.70;;;;;;10583061;28;20092;-66
2022/01/16 22:40:08;;;;;;;15.95;10.45;;;19.00;58.60;;;;;;10582895;28;20039;-64
2022/01/16 22:45:13;;;;;;;16.38;9.88;;;19.00;58.70;;;;;;10582027;28;20073;-64
2022/01/16 22:50:18;;;;;;;15.13;9.38;;;19.10;58.70;;;;;;10547577;28;20048;-65
2022/01/16 22:55:23;;;;;;;15.43;10.07;;;19.00;58.70;;;;;;10540245;28;20040;-62
2022/01/16 23:00:30;;;;;;;14.48;9.10;;;19.00;58.60;;;;;;10540366;28;20044;-64
2022/01/16 23:05:36;;;;;;;13.65;8.95;;;19.00;58.60;;;;;;10539992;28;20428;-64
2022/01/16 23:10:41;;;;;;;12.10;8.07;;;19.00;58.70;;;;;;10539426;28;20048;-64
2022/01/16 23:15:46;;;;;;;13.88;7.78;;;18.90;58.60;;;;;;10539439;28;20044;-65
2022/01/16 23:20:51;;;;;;;14.25;9.38;;;19.00;58.60;;;;;;10552154;28;20055;-61
2022/01/16 23:25:57;;;;;;;10.88;7.57;;;19.00;58.60;;;;;;10581134;28;20048;-62
2022/01/16 23:31:03;;;;;;;13.35;8.23;;;18.90;58.60;;;;;;10582664;28;20055;-62
2022/01/16 23:36:08;;;;;;;12.48;7.63;;;18.80;58.40;;;;;;10607753;27;20051;-62
2022/01/16 23:41:16;;;;;;;11.95;7.20;;;18.80;58.40;;;;;;10676109;27;20502;-63
2022/01/16 23:46:23;;;;;;;15.70;7.55;;;18.80;58.40;;;;;;10675649;27;20054;-62
2022/01/16 23:51:29;;;;;;;17.25;6.10;;;18.80;58.50;;;;;;10674471;27;20043;-62
2022/01/16 23:56:34;;;;;;;10.60;4.53;;;18.80;58.40;;;;;;10689155;27;20039;-63
